Terminal Aerodrome Forecast
Issued by NWS Sioux Falls, SD

Home | Current Version | Previous Version | Text Only | Print | Product List | Glossary On
Versions: 1 2 3 4 5 6 7 8 9 10 11 12 13 14 15
000
FTUS43 KFSD 282320
TAFFSD
TAF
KFSD 282320Z 2900/2924 17017G25KT P6SM SKC
     FM290300 17021G28KT P6SM SCT120 WS015/19052KT
     FM290900 23013G22KT P6SM SCT120
     FM291200 28014G32KT P6SM SCT040
     FM291400 31028G38KT P6SM SCT025=

USA.gov is the U.S. government's official web portal to all federal, state and local government web resources and services.